createdAt,value
2018-03-04T00:04:05.657Z,1008.1
2018-03-04T00:09:05.606Z,1008.3
2018-03-04T00:14:05.645Z,1008.1
2018-03-04T00:19:05.651Z,1008.3
2018-03-04T00:24:06.880Z,1008.3
2018-03-04T00:29:05.643Z,1008.3
2018-03-04T00:34:05.649Z,1008.3
2018-03-04T00:39:05.684Z,1008.1
2018-03-04T00:44:05.672Z,1008.3
2018-03-04T00:49:05.661Z,1008.3
2018-03-04T00:54:05.927Z,1008.3
2018-03-04T00:59:06.070Z,1008.4
2018-03-04T01:04:06.067Z,1008.3
2018-03-04T01:09:05.894Z,1008.3
2018-03-04T01:14:06.023Z,1008.2
2018-03-04T01:19:06.354Z,1008.2
2018-03-04T01:24:06.367Z,1008.3
2018-03-04T01:29:06.274Z,1008.4
2018-03-04T01:34:06.336Z,1008.3
2018-03-04T01:39:06.384Z,1008.4
2018-03-04T01:44:06.351Z,1008.3
2018-03-04T01:49:06.521Z,1008.3
2018-03-04T01:54:06.464Z,1008.3
2018-03-04T01:59:06.398Z,1008.4
2018-03-04T02:04:06.623Z,1008.4
2018-03-04T02:09:06.542Z,1008.4
2018-03-04T02:14:06.620Z,1008.5
2018-03-04T02:19:06.611Z,1008.6
2018-03-04T02:24:06.575Z,1008.6
2018-03-04T02:29:06.666Z,1008.6
2018-03-04T02:34:06.616Z,1008.6
2018-03-04T02:39:06.667Z,1008.6
2018-03-04T02:44:06.571Z,1008.6
2018-03-04T02:49:06.641Z,1008.6
2018-03-04T02:54:06.567Z,1008.6
2018-03-04T02:59:06.570Z,1008.7
2018-03-04T03:04:06.443Z,1008.7
2018-03-04T03:09:06.568Z,1008.9
2018-03-04T03:14:06.583Z,1009
2018-03-04T03:19:06.705Z,1009
2018-03-04T03:24:06.449Z,1009
2018-03-04T03:29:07.776Z,1009.1
2018-03-04T03:34:13.101Z,1009.1
2018-03-04T03:39:07.811Z,1009.2
2018-03-04T03:44:08.014Z,1009.2
2018-03-04T03:49:07.967Z,1009.2
2018-03-04T03:54:08.024Z,1009.3
2018-03-04T03:59:08.009Z,1009.3
2018-03-04T04:04:08.065Z,1009.3
2018-03-04T04:09:07.824Z,1009.3
2018-03-04T04:14:07.815Z,1009.3
2018-03-04T04:19:07.868Z,1009.3
2018-03-04T04:24:07.773Z,1009.3
2018-03-04T04:29:08.018Z,1009.3
2018-03-04T04:34:08.040Z,1009.4
2018-03-04T04:39:07.807Z,1009.4
2018-03-04T04:44:08.013Z,1009.4
2018-03-04T04:49:08.039Z,1009.6
2018-03-04T04:54:07.973Z,1009.4
2018-03-04T04:59:08.021Z,1009.4
2018-03-04T05:04:07.840Z,1009.4
2018-03-04T05:09:07.831Z,1009.5
2018-03-04T05:14:08.033Z,1009.6
2018-03-04T05:19:07.858Z,1009.5
2018-03-04T05:24:07.984Z,1009.6
2018-03-04T05:29:08.014Z,1009.6
2018-03-04T05:34:08.146Z,1009.6
2018-03-04T05:39:08.179Z,1009.6
2018-03-04T05:44:08.100Z,1009.8
2018-03-04T05:49:08.158Z,1009.7
2018-03-04T05:54:08.109Z,1009.7
2018-03-04T05:59:07.924Z,1009.6
2018-03-04T06:04:08.114Z,1009.8
2018-03-04T06:09:08.232Z,1009.8
2018-03-04T06:14:07.962Z,1009.9
2018-03-04T06:19:08.165Z,1009.9
2018-03-04T06:24:08.202Z,1009.7
2018-03-04T06:29:08.214Z,1009.7
2018-03-04T06:34:08.456Z,1009.7
2018-03-04T06:39:08.358Z,1009.9
2018-03-04T06:44:08.738Z,1009.8
2018-03-04T06:49:08.652Z,1009.9
2018-03-04T06:54:08.710Z,1010
2018-03-04T06:59:08.926Z,1010
2018-03-04T07:04:08.839Z,1009.8
2018-03-04T07:09:08.928Z,1009.9
2018-03-04T07:14:08.978Z,1010
2018-03-04T07:19:08.938Z,1010
2018-03-04T07:24:08.719Z,1009.8
2018-03-04T07:29:08.824Z,1009.8
2018-03-04T07:34:08.740Z,1009.9
2018-03-04T07:39:08.729Z,1009.9
2018-03-04T07:44:08.722Z,1009.9
2018-03-04T07:49:08.733Z,1009.8
2018-03-04T07:54:08.733Z,1009.7
2018-03-04T07:59:08.734Z,1009.8
2018-03-04T08:04:08.740Z,1009.8
2018-03-04T08:09:08.782Z,1009.7
2018-03-04T08:14:12.116Z,1009.7
2018-03-04T08:19:17.230Z,1009.6
2018-03-04T08:24:12.386Z,1009.5
2018-03-04T08:29:12.335Z,1009.5
2018-03-04T08:34:12.214Z,1009.4
2018-03-04T08:39:12.108Z,1009.3
2018-03-04T08:44:12.154Z,1009.3
2018-03-04T08:49:12.162Z,1009.2
2018-03-04T08:54:12.168Z,1009
2018-03-04T08:59:12.149Z,1009
2018-03-04T09:04:12.185Z,1008.9
2018-03-04T09:09:12.165Z,1009
2018-03-04T09:14:12.159Z,1008.9
2018-03-04T09:19:12.183Z,1008.9
2018-03-04T09:24:12.126Z,1008.9
2018-03-04T09:29:12.182Z,1008.9
2018-03-04T09:34:12.357Z,1008.8
2018-03-04T09:39:12.176Z,1008.9
2018-03-04T09:44:12.299Z,1008.9
2018-03-04T09:49:12.296Z,1008.8
2018-03-04T09:54:12.237Z,1008.7
2018-03-04T09:59:13.242Z,1008.4
2018-03-04T10:04:12.178Z,1008.4
2018-03-04T10:09:12.381Z,1008.4
2018-03-04T10:14:12.358Z,1008.5
2018-03-04T10:19:12.415Z,1008.4
2018-03-04T10:24:12.200Z,1008.4
2018-03-04T10:29:12.452Z,1008.3
2018-03-04T10:34:12.248Z,1008.2
2018-03-04T10:39:12.256Z,1008.1
2018-03-04T10:44:12.236Z,1008.1
2018-03-04T10:49:12.436Z,1007.8
2018-03-04T10:54:12.169Z,1007.9
2018-03-04T10:59:12.401Z,1007.6
2018-03-04T11:04:12.182Z,1007.6
2018-03-04T11:09:12.345Z,1007.6
2018-03-04T11:14:12.208Z,1007.5
2018-03-04T11:19:12.225Z,1007.3
2018-03-04T11:24:12.214Z,1007.4
2018-03-04T11:29:12.246Z,1007.2
2018-03-04T11:34:12.419Z,1007.4
2018-03-04T11:39:12.230Z,1007.4
2018-03-04T11:44:12.234Z,1007.2
2018-03-04T11:49:12.245Z,1007.1
2018-03-04T11:54:12.361Z,1007
2018-03-04T11:59:12.361Z,1007.1
2018-03-04T12:04:12.372Z,1007
2018-03-04T12:09:12.657Z,1006.8
2018-03-04T12:14:12.529Z,1006.7
2018-03-04T12:19:12.684Z,1006.7
2018-03-04T12:24:12.744Z,1006.6
2018-03-04T12:29:12.660Z,1006.6
2018-03-04T12:34:12.662Z,1006.5
2018-03-04T12:39:12.654Z,1006.4
2018-03-04T12:44:12.647Z,1006.2
2018-03-04T12:49:12.652Z,1006.2
2018-03-04T12:54:12.900Z,1006
2018-03-04T12:59:12.651Z,1005.9
2018-03-04T13:04:12.635Z,1005.8
2018-03-04T13:09:12.674Z,1005.5
2018-03-04T13:14:17.369Z,1005.4
2018-03-04T13:19:22.185Z,1005.2
2018-03-04T13:24:17.014Z,1005.2
2018-03-04T13:29:17.219Z,1005.3
2018-03-04T13:34:17.161Z,1005.4
2018-03-04T13:39:17.091Z,1005.2
2018-03-04T13:44:17.082Z,1005.2
2018-03-04T13:49:17.091Z,1005.1
2018-03-04T13:54:17.094Z,1005
2018-03-04T13:59:17.081Z,1005
2018-03-04T14:04:17.100Z,1004.9
2018-03-04T14:09:17.281Z,1004.9
2018-03-04T14:14:17.124Z,1004.8
2018-03-04T14:19:17.236Z,1004.9
2018-03-04T14:24:17.272Z,1005
2018-03-04T14:29:17.098Z,1004.9
2018-03-04T14:34:17.123Z,1004.9
2018-03-04T14:39:17.133Z,1004.9
2018-03-04T14:44:17.094Z,1004.7
2018-03-04T14:49:17.235Z,1004.6
2018-03-04T14:54:17.265Z,1004.6
2018-03-04T14:59:17.571Z,1004.5
2018-03-04T15:04:17.341Z,1004.4
2018-03-04T15:09:17.285Z,1004.5
2018-03-04T15:14:17.344Z,1004.4
2018-03-04T15:19:17.164Z,1004.5
2018-03-04T15:24:17.144Z,1004.5
2018-03-04T15:29:18.410Z,1004.4
2018-03-04T15:34:17.133Z,1004.4
2018-03-04T15:39:17.259Z,1004.4
2018-03-04T15:44:17.229Z,1004.4
2018-03-04T15:49:18.139Z,1004.3
2018-03-04T15:54:17.421Z,1004.3
2018-03-04T15:59:18.013Z,1004.3
2018-03-04T16:04:18.133Z,1004.3
2018-03-04T16:09:17.419Z,1004.3
2018-03-04T16:14:17.699Z,1004.2
2018-03-04T16:19:17.928Z,1004.3
2018-03-04T16:24:17.394Z,1004.1
2018-03-04T16:29:17.789Z,1004.1
2018-03-04T16:34:17.484Z,1004.2
2018-03-04T16:39:18.226Z,1004.2
2018-03-04T16:44:17.457Z,1004.2
2018-03-04T16:49:17.775Z,1004.1
2018-03-04T16:54:17.719Z,1004.1
2018-03-04T16:59:17.463Z,1004
2018-03-04T17:04:17.462Z,1004
2018-03-04T17:09:17.811Z,1004
2018-03-04T17:14:17.604Z,1003.9
2018-03-04T17:19:17.899Z,1003.9
2018-03-04T17:24:17.463Z,1003.8
2018-03-04T17:29:17.958Z,1003.8
2018-03-04T17:34:17.497Z,1003.8
2018-03-04T17:39:17.658Z,1003.8
2018-03-04T17:44:17.612Z,1003.8
2018-03-04T17:49:17.528Z,1003.8
2018-03-04T17:54:17.494Z,1003.7
2018-03-04T17:59:17.664Z,1003.9
2018-03-04T18:04:17.518Z,1003.7
2018-03-04T18:09:20.543Z,1003.9
2018-03-04T18:14:25.316Z,1003.9
2018-03-04T18:19:20.413Z,1004
2018-03-04T18:24:20.593Z,1003.9
2018-03-04T18:29:20.574Z,1003.8
2018-03-04T18:34:20.409Z,1003.7
2018-03-04T18:39:20.464Z,1003.7
2018-03-04T18:44:20.476Z,1003.6
2018-03-04T18:49:20.404Z,1003.7
2018-03-04T18:54:20.447Z,1003.8
2018-03-04T18:59:20.501Z,1003.7
2018-03-04T19:04:20.295Z,1003.7
2018-03-04T19:09:20.276Z,1003.5
2018-03-04T19:14:20.341Z,1003.6
2018-03-04T19:19:21.525Z,1003.6
2018-03-04T19:24:20.314Z,1003.5
2018-03-04T19:29:20.930Z,1003.5
2018-03-04T19:34:21.424Z,1003.5
2018-03-04T19:39:20.283Z,1003.5
2018-03-04T19:44:20.310Z,1003.7
2018-03-04T19:49:20.328Z,1003.7
2018-03-04T19:54:21.148Z,1003.7
2018-03-04T19:59:20.381Z,1003.7
2018-03-04T20:04:22.532Z,1003.8
2018-03-04T20:09:21.232Z,1003.9
2018-03-04T20:14:21.274Z,1003.8
2018-03-04T20:19:21.507Z,1003.9
2018-03-04T20:24:20.591Z,1003.9
2018-03-04T20:29:20.384Z,1003.8
2018-03-04T20:34:20.853Z,1003.7
2018-03-04T20:39:20.373Z,1003.7
2018-03-04T20:44:20.551Z,1003.7
2018-03-04T20:49:20.367Z,1003.7
2018-03-04T20:54:20.379Z,1003.6
2018-03-04T20:59:21.629Z,1003.6
2018-03-04T21:04:20.550Z,1003.6
2018-03-04T21:09:20.758Z,1003.6
2018-03-04T21:14:20.616Z,1003.6
2018-03-04T21:19:20.615Z,1003.6
2018-03-04T21:24:20.539Z,1003.6
2018-03-04T21:29:20.676Z,1003.6
2018-03-04T21:34:20.993Z,1003.7
2018-03-04T21:39:20.565Z,1003.7
2018-03-04T21:44:21.009Z,1003.8
2018-03-04T21:49:21.125Z,1003.7
2018-03-04T21:54:20.544Z,1003.7
2018-03-04T21:59:21.852Z,1003.7
2018-03-04T22:04:21.076Z,1003.7
2018-03-04T22:09:20.724Z,1003.9
2018-03-04T22:14:20.705Z,1003.9
2018-03-04T22:19:20.917Z,1003.9
2018-03-04T22:24:21.439Z,1003.9
2018-03-04T22:29:21.419Z,1003.9
2018-03-04T22:34:20.762Z,1003.8
2018-03-04T22:39:20.764Z,1003.8
2018-03-04T22:44:20.734Z,1003.9
2018-03-04T22:49:21.204Z,1003.9
2018-03-04T22:54:20.749Z,1003.7
2018-03-04T22:59:22.097Z,1003.6
2018-03-04T23:04:27.380Z,1003.6
2018-03-04T23:09:22.071Z,1003.7
2018-03-04T23:14:22.318Z,1003.8
2018-03-04T23:19:22.171Z,1003.7
2018-03-04T23:24:22.258Z,1003.7
2018-03-04T23:29:22.096Z,1003.8
2018-03-04T23:34:22.133Z,1003.8
2018-03-04T23:39:22.120Z,1003.8
2018-03-04T23:44:22.317Z,1003.8
2018-03-04T23:49:22.224Z,1003.8
2018-03-04T23:54:22.169Z,1003.8
2018-03-04T23:59:22.319Z,1003.7
